sensor_id;sensor_type;location;lat;lon;timestamp;P1;durP1;ratioP1;P2;durP2;ratioP2
29030;SDS011;16122;50.236;11.734;2023-05-24T00:02:12;2.33;;;1.80;;
29030;SDS011;16122;50.236;11.734;2023-05-24T00:04:38;3.97;;;2.10;;
29030;SDS011;16122;50.236;11.734;2023-05-24T00:07:05;3.53;;;1.83;;
29030;SDS011;16122;50.236;11.734;2023-05-24T00:09:31;2.10;;;1.90;;
29030;SDS011;16122;50.236;11.734;2023-05-24T00:11:57;2.10;;;1.70;;
29030;SDS011;16122;50.236;11.734;2023-05-24T00:14:23;3.30;;;2.40;;
29030;SDS011;16122;50.236;11.734;2023-05-24T00:16:49;2.07;;;1.87;;
29030;SDS011;16122;50.236;11.734;2023-05-24T00:19:15;2.17;;;1.80;;
29030;SDS011;16122;50.236;11.734;2023-05-24T00:21:43;1.83;;;1.73;;
29030;SDS011;16122;50.236;11.734;2023-05-24T00:24:10;1.73;;;1.63;;
29030;SDS011;16122;50.236;11.734;2023-05-24T00:26:36;2.20;;;2.00;;
29030;SDS011;16122;50.236;11.734;2023-05-24T00:29:02;1.97;;;1.60;;
29030;SDS011;16122;50.236;11.734;2023-05-24T00:31:28;3.30;;;1.70;;
29030;SDS011;16122;50.236;11.734;2023-05-24T00:33:54;2.37;;;1.80;;
29030;SDS011;16122;50.236;11.734;2023-05-24T00:36:20;2.70;;;1.83;;
29030;SDS011;16122;50.236;11.734;2023-05-24T00:38:46;2.70;;;1.80;;
29030;SDS011;16122;50.236;11.734;2023-05-24T00:41:14;2.07;;;1.80;;
29030;SDS011;16122;50.236;11.734;2023-05-24T00:43:41;3.17;;;1.93;;
29030;SDS011;16122;50.236;11.734;2023-05-24T00:48:54;3.40;;;2.20;;
29030;SDS011;16122;50.236;11.734;2023-05-24T00:51:21;4.13;;;2.73;;
29030;SDS011;16122;50.236;11.734;2023-05-24T00:53:48;1.90;;;1.80;;
29030;SDS011;16122;50.236;11.734;2023-05-24T00:56:14;1.50;;;1.40;;
29030;SDS011;16122;50.236;11.734;2023-05-24T00:58:41;2.97;;;1.90;;
29030;SDS011;16122;50.236;11.734;2023-05-24T01:01:08;1.83;;;1.70;;
29030;SDS011;16122;50.236;11.734;2023-05-24T01:03:34;2.30;;;1.90;;
29030;SDS011;16122;50.236;11.734;2023-05-24T01:06:04;2.37;;;1.60;;
29030;SDS011;16122;50.236;11.734;2023-05-24T01:28:23;2.00;;;1.80;;
29030;SDS011;16122;50.236;11.734;2023-05-24T01:30:51;2.40;;;2.20;;
29030;SDS011;16122;50.236;11.734;2023-05-24T01:33:21;2.80;;;1.80;;
29030;SDS011;16122;50.236;11.734;2023-05-24T01:35:47;3.00;;;1.80;;
29030;SDS011;16122;50.236;11.734;2023-05-24T01:38:13;2.53;;;2.30;;
29030;SDS011;16122;50.236;11.734;2023-05-24T01:40:40;1.93;;;1.70;;
29030;SDS011;16122;50.236;11.734;2023-05-24T01:43:14;2.60;;;1.70;;
29030;SDS011;16122;50.236;11.734;2023-05-24T01:51:53;2.43;;;1.90;;
29030;SDS011;16122;50.236;11.734;2023-05-24T01:54:30;2.70;;;2.00;;
29030;SDS011;16122;50.236;11.734;2023-05-24T01:57:02;1.80;;;1.67;;
29030;SDS011;16122;50.236;11.734;2023-05-24T01:59:31;2.80;;;2.00;;
29030;SDS011;16122;50.236;11.734;2023-05-24T02:01:58;2.23;;;1.70;;
29030;SDS011;16122;50.236;11.734;2023-05-24T02:04:24;4.10;;;1.80;;
29030;SDS011;16122;50.236;11.734;2023-05-24T02:06:50;4.97;;;2.13;;
29030;SDS011;16122;50.236;11.734;2023-05-24T02:09:16;2.43;;;1.70;;
29030;SDS011;16122;50.236;11.734;2023-05-24T02:11:42;2.10;;;1.90;;
29030;SDS011;16122;50.236;11.734;2023-05-24T02:14:08;2.27;;;1.87;;
29030;SDS011;16122;50.236;11.734;2023-05-24T02:16:33;2.27;;;1.93;;
29030;SDS011;16122;50.236;11.734;2023-05-24T02:19:07;3.87;;;1.90;;
29030;SDS011;16122;50.236;11.734;2023-05-24T02:21:33;2.57;;;1.83;;
29030;SDS011;16122;50.236;11.734;2023-05-24T02:24:00;1.90;;;1.80;;
29030;SDS011;16122;50.236;11.734;2023-05-24T02:26:26;2.23;;;1.67;;
29030;SDS011;16122;50.236;11.734;2023-05-24T02:28:52;1.70;;;1.43;;
29030;SDS011;16122;50.236;11.734;2023-05-24T02:31:17;6.10;;;1.43;;
29030;SDS011;16122;50.236;11.734;2023-05-24T02:33:43;2.50;;;2.17;;
29030;SDS011;16122;50.236;11.734;2023-05-24T02:36:09;2.20;;;2.00;;
29030;SDS011;16122;50.236;11.734;2023-05-24T02:38:35;1.70;;;1.60;;
29030;SDS011;16122;50.236;11.734;2023-05-24T02:41:01;1.77;;;1.67;;
29030;SDS011;16122;50.236;11.734;2023-05-24T02:43:27;2.30;;;1.77;;
29030;SDS011;16122;50.236;11.734;2023-05-24T02:45:53;2.50;;;1.97;;
29030;SDS011;16122;50.236;11.734;2023-05-24T02:48:19;2.40;;;1.60;;
29030;SDS011;16122;50.236;11.734;2023-05-24T02:50:45;1.93;;;1.73;;
29030;SDS011;16122;50.236;11.734;2023-05-24T02:53:11;2.37;;;2.17;;
29030;SDS011;16122;50.236;11.734;2023-05-24T02:55:37;2.60;;;1.97;;
29030;SDS011;16122;50.236;11.734;2023-05-24T02:58:03;1.60;;;1.50;;
29030;SDS011;16122;50.236;11.734;2023-05-24T03:00:31;2.30;;;1.47;;
29030;SDS011;16122;50.236;11.734;2023-05-24T03:02:57;1.40;;;1.30;;
29030;SDS011;16122;50.236;11.734;2023-05-24T03:05:26;2.63;;;1.80;;
29030;SDS011;16122;50.236;11.734;2023-05-24T03:07:52;1.70;;;1.60;;
29030;SDS011;16122;50.236;11.734;2023-05-24T03:10:18;2.73;;;1.47;;
29030;SDS011;16122;50.236;11.734;2023-05-24T03:12:44;2.33;;;1.50;;
29030;SDS011;16122;50.236;11.734;2023-05-24T03:15:10;2.00;;;1.60;;
29030;SDS011;16122;50.236;11.734;2023-05-24T03:17:36;2.47;;;2.27;;
29030;SDS011;16122;50.236;11.734;2023-05-24T03:20:02;2.47;;;1.80;;
29030;SDS011;16122;50.236;11.734;2023-05-24T03:22:30;2.80;;;1.90;;
29030;SDS011;16122;50.236;11.734;2023-05-24T03:24:56;2.47;;;1.90;;
29030;SDS011;16122;50.236;11.734;2023-05-24T03:27:22;2.17;;;1.73;;
29030;SDS011;16122;50.236;11.734;2023-05-24T03:29:48;3.50;;;1.70;;
29030;SDS011;16122;50.236;11.734;2023-05-24T03:32:14;2.23;;;1.93;;
29030;SDS011;16122;50.236;11.734;2023-05-24T03:34:40;3.73;;;2.00;;
29030;SDS011;16122;50.236;11.734;2023-05-24T03:37:07;2.03;;;1.50;;
29030;SDS011;16122;50.236;11.734;2023-05-24T03:39:33;2.20;;;1.67;;
29030;SDS011;16122;50.236;11.734;2023-05-24T03:42:13;2.30;;;1.60;;
29030;SDS011;16122;50.236;11.734;2023-05-24T03:44:39;2.33;;;1.70;;
29030;SDS011;16122;50.236;11.734;2023-05-24T03:47:05;1.67;;;1.57;;
29030;SDS011;16122;50.236;11.734;2023-05-24T03:49:31;1.93;;;1.60;;
29030;SDS011;16122;50.236;11.734;2023-05-24T03:51:57;3.60;;;1.70;;
29030;SDS011;16122;50.236;11.734;2023-05-24T03:54:23;2.03;;;1.50;;
29030;SDS011;16122;50.236;11.734;2023-05-24T03:56:48;2.20;;;1.60;;
29030;SDS011;16122;50.236;11.734;2023-05-24T03:59:14;3.57;;;1.30;;
29030;SDS011;16122;50.236;11.734;2023-05-24T04:01:40;4.27;;;1.97;;
29030;SDS011;16122;50.236;11.734;2023-05-24T04:04:06;1.53;;;1.43;;
29030;SDS011;16122;50.236;11.734;2023-05-24T04:06:32;1.80;;;1.50;;
29030;SDS011;16122;50.236;11.734;2023-05-24T04:09:01;2.50;;;1.80;;
29030;SDS011;16122;50.236;11.734;2023-05-24T04:11:29;3.43;;;1.77;;
29030;SDS011;16122;50.236;11.734;2023-05-24T04:13:56;3.40;;;1.57;;
29030;SDS011;16122;50.236;11.734;2023-05-24T04:16:25;3.33;;;1.80;;
29030;SDS011;16122;50.236;11.734;2023-05-24T04:18:52;2.63;;;1.80;;
29030;SDS011;16122;50.236;11.734;2023-05-24T04:21:21;2.00;;;1.90;;
29030;SDS011;16122;50.236;11.734;2023-05-24T04:23:48;4.37;;;1.60;;
29030;SDS011;16122;50.236;11.734;2023-05-24T04:26:14;3.37;;;1.77;;
29030;SDS011;16122;50.236;11.734;2023-05-24T04:28:41;4.70;;;1.50;;
29030;SDS011;16122;50.236;11.734;2023-05-24T04:31:07;2.60;;;2.00;;
29030;SDS011;16122;50.236;11.734;2023-05-24T04:33:34;4.20;;;2.20;;
29030;SDS011;16122;50.236;11.734;2023-05-24T04:36:01;4.47;;;1.60;;
29030;SDS011;16122;50.236;11.734;2023-05-24T04:38:27;2.47;;;1.47;;
29030;SDS011;16122;50.236;11.734;2023-05-24T04:40:58;1.80;;;1.70;;
29030;SDS011;16122;50.236;11.734;2023-05-24T04:43:25;2.40;;;1.97;;
29030;SDS011;16122;50.236;11.734;2023-05-24T04:45:51;3.30;;;2.37;;
29030;SDS011;16122;50.236;11.734;2023-05-24T04:48:20;3.20;;;1.60;;
29030;SDS011;16122;50.236;11.734;2023-05-24T04:50:51;3.20;;;1.90;;
29030;SDS011;16122;50.236;11.734;2023-05-24T04:53:18;2.17;;;1.57;;
29030;SDS011;16122;50.236;11.734;2023-05-24T04:55:45;2.10;;;1.37;;
29030;SDS011;16122;50.236;11.734;2023-05-24T04:58:12;1.57;;;1.40;;
29030;SDS011;16122;50.236;11.734;2023-05-24T05:00:38;3.90;;;2.00;;
29030;SDS011;16122;50.236;11.734;2023-05-24T05:03:04;2.93;;;1.80;;
29030;SDS011;16122;50.236;11.734;2023-05-24T05:05:30;2.80;;;1.60;;
29030;SDS011;16122;50.236;11.734;2023-05-24T05:07:56;2.87;;;1.97;;
29030;SDS011;16122;50.236;11.734;2023-05-24T05:10:22;2.93;;;1.80;;
29030;SDS011;16122;50.236;11.734;2023-05-24T05:12:48;3.10;;;1.57;;
29030;SDS011;16122;50.236;11.734;2023-05-24T05:15:14;4.00;;;1.60;;
29030;SDS011;16122;50.236;11.734;2023-05-24T05:17:40;3.30;;;2.03;;
29030;SDS011;16122;50.236;11.734;2023-05-24T05:20:06;2.30;;;1.80;;
29030;SDS011;16122;50.236;11.734;2023-05-24T05:22:33;2.37;;;1.60;;
29030;SDS011;16122;50.236;11.734;2023-05-24T05:24:59;1.97;;;1.63;;
29030;SDS011;16122;50.236;11.734;2023-05-24T05:27:25;2.03;;;1.50;;
29030;SDS011;16122;50.236;11.734;2023-05-24T05:29:51;2.40;;;1.70;;
29030;SDS011;16122;50.236;11.734;2023-05-24T05:32:17;1.67;;;1.40;;
29030;SDS011;16122;50.236;11.734;2023-05-24T05:34:43;2.70;;;1.90;;
29030;SDS011;16122;50.236;11.734;2023-05-24T05:37:09;2.60;;;1.73;;
29030;SDS011;16122;50.236;11.734;2023-05-24T05:39:35;2.03;;;1.20;;
29030;SDS011;16122;50.236;11.734;2023-05-24T05:42:01;3.40;;;2.10;;
29030;SDS011;16122;50.236;11.734;2023-05-24T05:44:27;2.20;;;1.63;;
29030;SDS011;16122;50.236;11.734;2023-05-24T05:46:53;4.40;;;1.77;;
29030;SDS011;16122;50.236;11.734;2023-05-24T05:49:20;3.97;;;2.10;;
29030;SDS011;16122;50.236;11.734;2023-05-24T05:51:46;3.10;;;1.87;;
29030;SDS011;16122;50.236;11.734;2023-05-24T05:54:12;3.13;;;1.80;;
29030;SDS011;16122;50.236;11.734;2023-05-24T05:56:43;1.70;;;1.50;;
29030;SDS011;16122;50.236;11.734;2023-05-24T05:59:13;4.13;;;1.80;;
29030;SDS011;16122;50.236;11.734;2023-05-24T06:01:43;2.30;;;1.70;;
29030;SDS011;16122;50.236;11.734;2023-05-24T06:04:11;2.30;;;1.50;;
29030;SDS011;16122;50.236;11.734;2023-05-24T06:06:37;3.00;;;1.60;;
29030;SDS011;16122;50.236;11.734;2023-05-24T06:09:03;2.83;;;1.70;;
29030;SDS011;16122;50.236;11.734;2023-05-24T06:11:29;3.87;;;1.60;;
29030;SDS011;16122;50.236;11.734;2023-05-24T06:13:55;3.30;;;1.87;;
29030;SDS011;16122;50.236;11.734;2023-05-24T06:16:21;2.60;;;1.50;;
29030;SDS011;16122;50.236;11.734;2023-05-24T06:18:47;4.57;;;1.60;;
29030;SDS011;16122;50.236;11.734;2023-05-24T06:21:13;3.30;;;1.77;;
29030;SDS011;16122;50.236;11.734;2023-05-24T06:23:39;4.83;;;1.83;;
29030;SDS011;16122;50.236;11.734;2023-05-24T06:26:05;2.40;;;1.33;;
29030;SDS011;16122;50.236;11.734;2023-05-24T06:28:34;3.30;;;1.77;;
29030;SDS011;16122;50.236;11.734;2023-05-24T06:31:00;4.83;;;1.90;;
29030;SDS011;16122;50.236;11.734;2023-05-24T06:33:29;1.87;;;1.77;;
29030;SDS011;16122;50.236;11.734;2023-05-24T06:35:56;4.50;;;1.80;;
29030;SDS011;16122;50.236;11.734;2023-05-24T06:38:22;1.93;;;1.50;;
29030;SDS011;16122;50.236;11.734;2023-05-24T06:40:48;1.60;;;1.50;;
29030;SDS011;16122;50.236;11.734;2023-05-24T06:43:14;2.30;;;1.50;;
29030;SDS011;16122;50.236;11.734;2023-05-24T06:45:41;3.60;;;1.90;;
29030;SDS011;16122;50.236;11.734;2023-05-24T06:48:08;4.67;;;1.87;;
29030;SDS011;16122;50.236;11.734;2023-05-24T06:50:35;4.03;;;1.87;;
29030;SDS011;16122;50.236;11.734;2023-05-24T06:53:01;4.93;;;2.00;;
29030;SDS011;16122;50.236;11.734;2023-05-24T06:55:27;3.00;;;1.57;;
29030;SDS011;16122;50.236;11.734;2023-05-24T06:57:53;4.23;;;2.00;;
29030;SDS011;16122;50.236;11.734;2023-05-24T07:00:19;2.33;;;1.70;;
29030;SDS011;16122;50.236;11.734;2023-05-24T07:02:46;2.70;;;1.67;;
29030;SDS011;16122;50.236;11.734;2023-05-24T07:05:12;2.63;;;1.83;;
29030;SDS011;16122;50.236;11.734;2023-05-24T07:07:38;2.23;;;1.83;;
29030;SDS011;16122;50.236;11.734;2023-05-24T07:10:08;1.60;;;1.50;;
29030;SDS011;16122;50.236;11.734;2023-05-24T07:12:38;3.87;;;1.90;;
29030;SDS011;16122;50.236;11.734;2023-05-24T07:15:04;1.67;;;1.57;;
29030;SDS011;16122;50.236;11.734;2023-05-24T07:17:31;3.70;;;2.20;;
29030;SDS011;16122;50.236;11.734;2023-05-24T07:19:58;2.10;;;1.40;;
29030;SDS011;16122;50.236;11.734;2023-05-24T07:22:25;2.50;;;2.13;;
29030;SDS011;16122;50.236;11.734;2023-05-24T07:24:52;2.23;;;1.80;;
29030;SDS011;16122;50.236;11.734;2023-05-24T07:27:19;3.70;;;1.90;;
29030;SDS011;16122;50.236;11.734;2023-05-24T07:29:46;2.93;;;1.47;;
29030;SDS011;16122;50.236;11.734;2023-05-24T07:32:14;3.30;;;1.30;;
29030;SDS011;16122;50.236;11.734;2023-05-24T07:34:40;3.23;;;1.67;;
29030;SDS011;16122;50.236;11.734;2023-05-24T07:37:05;4.00;;;2.20;;
29030;SDS011;16122;50.236;11.734;2023-05-24T07:39:31;1.77;;;1.57;;
29030;SDS011;16122;50.236;11.734;2023-05-24T07:41:57;2.90;;;1.90;;
29030;SDS011;16122;50.236;11.734;2023-05-24T07:44:23;2.67;;;1.70;;
29030;SDS011;16122;50.236;11.734;2023-05-24T07:46:49;3.73;;;2.03;;
29030;SDS011;16122;50.236;11.734;2023-05-24T07:49:15;3.80;;;1.90;;
29030;SDS011;16122;50.236;11.734;2023-05-24T07:51:41;5.63;;;2.83;;
29030;SDS011;16122;50.236;11.734;2023-05-24T07:54:07;5.40;;;2.30;;
29030;SDS011;16122;50.236;11.734;2023-05-24T07:56:33;4.83;;;1.90;;
29030;SDS011;16122;50.236;11.734;2023-05-24T07:58:58;7.67;;;2.57;;
29030;SDS011;16122;50.236;11.734;2023-05-24T08:01:31;3.63;;;2.17;;
29030;SDS011;16122;50.236;11.734;2023-05-24T08:04:02;4.83;;;2.10;;
29030;SDS011;16122;50.236;11.734;2023-05-24T08:06:28;4.07;;;2.00;;
29030;SDS011;16122;50.236;11.734;2023-05-24T08:08:55;3.93;;;2.10;;
29030;SDS011;16122;50.236;11.734;2023-05-24T08:11:21;3.77;;;2.27;;
29030;SDS011;16122;50.236;11.734;2023-05-24T08:13:47;4.57;;;2.00;;
29030;SDS011;16122;50.236;11.734;2023-05-24T08:16:12;5.07;;;2.20;;
29030;SDS011;16122;50.236;11.734;2023-05-24T08:18:38;3.23;;;2.10;;
29030;SDS011;16122;50.236;11.734;2023-05-24T08:21:04;4.90;;;1.77;;
29030;SDS011;16122;50.236;11.734;2023-05-24T08:23:30;3.33;;;2.23;;
29030;SDS011;16122;50.236;11.734;2023-05-24T08:25:56;3.50;;;1.97;;
29030;SDS011;16122;50.236;11.734;2023-05-24T08:28:22;4.20;;;2.03;;
29030;SDS011;16122;50.236;11.734;2023-05-24T08:30:48;2.00;;;1.80;;
29030;SDS011;16122;50.236;11.734;2023-05-24T08:33:14;5.70;;;2.07;;
29030;SDS011;16122;50.236;11.734;2023-05-24T08:35:40;3.50;;;2.17;;
29030;SDS011;16122;50.236;11.734;2023-05-24T08:38:06;3.80;;;2.20;;
29030;SDS011;16122;50.236;11.734;2023-05-24T08:40:32;3.10;;;1.80;;
29030;SDS011;16122;50.236;11.734;2023-05-24T08:42:58;3.07;;;1.80;;
29030;SDS011;16122;50.236;11.734;2023-05-24T08:45:28;4.23;;;2.50;;
29030;SDS011;16122;50.236;11.734;2023-05-24T08:47:56;3.80;;;1.93;;
29030;SDS011;16122;50.236;11.734;2023-05-24T08:50:23;2.10;;;1.80;;
29030;SDS011;16122;50.236;11.734;2023-05-24T08:52:49;3.20;;;2.10;;
29030;SDS011;16122;50.236;11.734;2023-05-24T08:55:16;2.87;;;2.40;;
29030;SDS011;16122;50.236;11.734;2023-05-24T08:57:44;3.87;;;1.80;;
29030;SDS011;16122;50.236;11.734;2023-05-24T09:00:11;2.87;;;1.90;;
29030;SDS011;16122;50.236;11.734;2023-05-24T09:02:38;3.63;;;2.07;;
29030;SDS011;16122;50.236;11.734;2023-05-24T09:05:09;3.90;;;2.27;;
29030;SDS011;16122;50.236;11.734;2023-05-24T09:07:36;3.87;;;2.00;;
29030;SDS011;16122;50.236;11.734;2023-05-24T09:10:03;2.80;;;2.00;;
29030;SDS011;16122;50.236;11.734;2023-05-24T09:12:30;5.67;;;2.20;;
29030;SDS011;16122;50.236;11.734;2023-05-24T09:14:57;6.43;;;2.70;;
29030;SDS011;16122;50.236;11.734;2023-05-24T09:17:23;6.03;;;2.83;;
29030;SDS011;16122;50.236;11.734;2023-05-24T09:19:50;3.57;;;2.40;;
29030;SDS011;16122;50.236;11.734;2023-05-24T09:22:21;6.13;;;2.33;;
29030;SDS011;16122;50.236;11.734;2023-05-24T09:24:52;3.83;;;2.43;;
29030;SDS011;16122;50.236;11.734;2023-05-24T09:27:22;7.07;;;2.60;;
29030;SDS011;16122;50.236;11.734;2023-05-24T09:29:48;9.13;;;3.07;;
29030;SDS011;16122;50.236;11.734;2023-05-24T09:32:16;7.93;;;3.10;;
29030;SDS011;16122;50.236;11.734;2023-05-24T09:34:44;7.83;;;2.70;;
29030;SDS011;16122;50.236;11.734;2023-05-24T09:37:13;4.43;;;2.97;;
29030;SDS011;16122;50.236;11.734;2023-05-24T09:39:44;6.60;;;3.00;;
29030;SDS011;16122;50.236;11.734;2023-05-24T09:42:19;6.70;;;3.37;;
29030;SDS011;16122;50.236;11.734;2023-05-24T09:45:09;7.70;;;3.50;;
29030;SDS011;16122;50.236;11.734;2023-05-24T09:47:36;5.50;;;2.97;;
29030;SDS011;16122;50.236;11.734;2023-05-24T09:50:04;5.43;;;3.30;;
29030;SDS011;16122;50.236;11.734;2023-05-24T09:52:35;8.63;;;3.70;;
29030;SDS011;16122;50.236;11.734;2023-05-24T09:55:18;7.30;;;4.20;;
29030;SDS011;16122;50.236;11.734;2023-05-24T09:57:44;10.27;;;5.70;;
29030;SDS011;16122;50.236;11.734;2023-05-24T10:00:27;14.77;;;6.90;;
29030;SDS011;16122;50.236;11.734;2023-05-24T10:03:14;13.97;;;6.67;;
29030;SDS011;16122;50.236;11.734;2023-05-24T10:05:43;19.53;;;11.13;;
29030;SDS011;16122;50.236;11.734;2023-05-24T10:08:10;39.60;;;27.90;;
29030;SDS011;16122;50.236;11.734;2023-05-24T10:10:38;33.57;;;26.83;;
29030;SDS011;16122;50.236;11.734;2023-05-24T10:13:05;27.30;;;20.77;;
29030;SDS011;16122;50.236;11.734;2023-05-24T10:15:31;31.17;;;20.37;;
29030;SDS011;16122;50.236;11.734;2023-05-24T10:17:57;21.40;;;18.17;;
29030;SDS011;16122;50.236;11.734;2023-05-24T10:20:32;31.10;;;20.60;;
29030;SDS011;16122;50.236;11.734;2023-05-24T10:22:59;29.27;;;18.93;;
29030;SDS011;16122;50.236;11.734;2023-05-24T10:25:28;22.97;;;19.20;;
29030;SDS011;16122;50.236;11.734;2023-05-24T10:27:57;25.97;;;18.90;;
29030;SDS011;16122;50.236;11.734;2023-05-24T10:30:32;28.53;;;19.50;;
29030;SDS011;16122;50.236;11.734;2023-05-24T10:33:13;26.07;;;18.30;;
29030;SDS011;16122;50.236;11.734;2023-05-24T10:35:40;29.73;;;19.53;;
29030;SDS011;16122;50.236;11.734;2023-05-24T10:38:07;25.23;;;17.30;;
29030;SDS011;16122;50.236;11.734;2023-05-24T10:40:33;26.23;;;16.80;;
29030;SDS011;16122;50.236;11.734;2023-05-24T10:43:02;26.37;;;17.07;;
29030;SDS011;16122;50.236;11.734;2023-05-24T10:45:31;26.50;;;17.63;;
29030;SDS011;16122;50.236;11.734;2023-05-24T10:50:37;23.93;;;16.90;;
29030;SDS011;16122;50.236;11.734;2023-05-24T10:55:52;22.83;;;15.93;;
29030;SDS011;16122;50.236;11.734;2023-05-24T10:58:19;22.07;;;15.90;;
29030;SDS011;16122;50.236;11.734;2023-05-24T11:00:47;22.70;;;14.77;;
29030;SDS011;16122;50.236;11.734;2023-05-24T11:03:16;19.97;;;14.83;;
29030;SDS011;16122;50.236;11.734;2023-05-24T11:08:13;21.67;;;15.10;;
29030;SDS011;16122;50.236;11.734;2023-05-24T11:11:06;18.27;;;9.30;;
29030;SDS011;16122;50.236;11.734;2023-05-24T11:13:36;15.63;;;6.20;;
29030;SDS011;16122;50.236;11.734;2023-05-24T11:16:03;16.77;;;6.93;;
29030;SDS011;16122;50.236;11.734;2023-05-24T11:18:29;13.83;;;6.97;;
29030;SDS011;16122;50.236;11.734;2023-05-24T11:20:58;12.40;;;7.47;;
29030;SDS011;16122;50.236;11.734;2023-05-24T11:23:27;10.70;;;7.93;;
29030;SDS011;16122;50.236;11.734;2023-05-24T11:25:54;11.53;;;7.27;;
29030;SDS011;16122;50.236;11.734;2023-05-24T11:28:21;17.93;;;8.03;;
29030;SDS011;16122;50.236;11.734;2023-05-24T11:30:47;16.30;;;8.33;;
29030;SDS011;16122;50.236;11.734;2023-05-24T11:35:47;11.80;;;7.27;;
29030;SDS011;16122;50.236;11.734;2023-05-24T11:38:15;13.10;;;6.70;;
29030;SDS011;16122;50.236;11.734;2023-05-24T11:40:45;12.97;;;6.93;;
29030;SDS011;16122;50.236;11.734;2023-05-24T11:43:14;13.20;;;6.80;;
29030;SDS011;16122;50.236;11.734;2023-05-24T11:45:44;10.70;;;5.37;;
29030;SDS011;16122;50.236;11.734;2023-05-24T11:48:15;14.63;;;4.53;;
29030;SDS011;16122;50.236;11.734;2023-05-24T11:50:44;14.27;;;5.17;;
29030;SDS011;16122;50.236;11.734;2023-05-24T11:53:15;8.50;;;4.40;;
29030;SDS011;16122;50.236;11.734;2023-05-24T11:55:42;10.93;;;4.47;;
29030;SDS011;16122;50.236;11.734;2023-05-24T11:58:31;10.90;;;4.70;;
29030;SDS011;16122;50.236;11.734;2023-05-24T12:01:21;12.03;;;4.53;;
29030;SDS011;16122;50.236;11.734;2023-05-24T12:03:51;9.87;;;3.43;;
29030;SDS011;16122;50.236;11.734;2023-05-24T12:06:18;9.53;;;3.50;;
29030;SDS011;16122;50.236;11.734;2023-05-24T12:08:46;10.13;;;4.10;;
29030;SDS011;16122;50.236;11.734;2023-05-24T12:11:12;8.23;;;3.60;;
29030;SDS011;16122;50.236;11.734;2023-05-24T12:13:39;6.87;;;3.20;;
29030;SDS011;16122;50.236;11.734;2023-05-24T12:16:05;8.97;;;3.93;;
29030;SDS011;16122;50.236;11.734;2023-05-24T12:18:31;7.10;;;2.90;;
29030;SDS011;16122;50.236;11.734;2023-05-24T12:20:57;12.10;;;4.00;;
29030;SDS011;16122;50.236;11.734;2023-05-24T12:23:24;8.90;;;3.00;;
29030;SDS011;16122;50.236;11.734;2023-05-24T12:26:00;5.70;;;3.20;;
29030;SDS011;16122;50.236;11.734;2023-05-24T12:28:26;12.87;;;4.47;;
29030;SDS011;16122;50.236;11.734;2023-05-24T12:30:56;9.77;;;4.37;;
29030;SDS011;16122;50.236;11.734;2023-05-24T12:33:22;9.40;;;3.60;;
29030;SDS011;16122;50.236;11.734;2023-05-24T12:35:48;9.73;;;3.70;;
29030;SDS011;16122;50.236;11.734;2023-05-24T12:38:16;9.63;;;3.63;;
29030;SDS011;16122;50.236;11.734;2023-05-24T12:40:49;8.70;;;2.60;;
29030;SDS011;16122;50.236;11.734;2023-05-24T12:43:15;11.50;;;3.40;;
29030;SDS011;16122;50.236;11.734;2023-05-24T12:45:43;10.43;;;3.53;;
29030;SDS011;16122;50.236;11.734;2023-05-24T12:48:09;12.77;;;3.50;;
29030;SDS011;16122;50.236;11.734;2023-05-24T12:50:36;6.97;;;3.03;;
29030;SDS011;16122;50.236;11.734;2023-05-24T12:53:01;8.80;;;3.03;;
29030;SDS011;16122;50.236;11.734;2023-05-24T12:55:28;5.30;;;3.67;;
29030;SDS011;16122;50.236;11.734;2023-05-24T12:57:55;12.13;;;4.83;;
29030;SDS011;16122;50.236;11.734;2023-05-24T13:00:26;9.00;;;3.80;;
29030;SDS011;16122;50.236;11.734;2023-05-24T13:02:53;13.63;;;3.70;;
29030;SDS011;16122;50.236;11.734;2023-05-24T13:05:22;9.90;;;3.47;;
29030;SDS011;16122;50.236;11.734;2023-05-24T13:07:52;8.17;;;3.17;;
29030;SDS011;16122;50.236;11.734;2023-05-24T13:10:20;6.40;;;2.87;;
29030;SDS011;16122;50.236;11.734;2023-05-24T13:12:47;8.87;;;3.13;;
29030;SDS011;16122;50.236;11.734;2023-05-24T13:15:13;6.13;;;3.10;;
29030;SDS011;16122;50.236;11.734;2023-05-24T13:17:39;5.40;;;3.30;;
29030;SDS011;16122;50.236;11.734;2023-05-24T13:20:06;10.30;;;3.40;;
29030;SDS011;16122;50.236;11.734;2023-05-24T13:22:35;8.73;;;3.80;;
29030;SDS011;16122;50.236;11.734;2023-05-24T13:25:05;9.03;;;3.10;;
29030;SDS011;16122;50.236;11.734;2023-05-24T13:27:32;6.50;;;3.10;;
29030;SDS011;16122;50.236;11.734;2023-05-24T13:29:58;7.63;;;2.67;;
29030;SDS011;16122;50.236;11.734;2023-05-24T13:32:24;9.20;;;3.33;;
29030;SDS011;16122;50.236;11.734;2023-05-24T13:34:50;3.87;;;2.23;;
29030;SDS011;16122;50.236;11.734;2023-05-24T13:37:16;8.07;;;3.13;;
29030;SDS011;16122;50.236;11.734;2023-05-24T13:39:43;10.50;;;2.87;;
29030;SDS011;16122;50.236;11.734;2023-05-24T13:42:09;8.20;;;3.20;;
29030;SDS011;16122;50.236;11.734;2023-05-24T13:44:35;5.10;;;2.77;;
29030;SDS011;16122;50.236;11.734;2023-05-24T13:47:02;6.87;;;2.93;;
29030;SDS011;16122;50.236;11.734;2023-05-24T13:49:28;9.33;;;2.60;;
29030;SDS011;16122;50.236;11.734;2023-05-24T13:51:54;8.87;;;3.07;;
29030;SDS011;16122;50.236;11.734;2023-05-24T13:54:20;10.97;;;4.03;;
29030;SDS011;16122;50.236;11.734;2023-05-24T13:56:46;5.80;;;3.20;;
29030;SDS011;16122;50.236;11.734;2023-05-24T13:59:13;6.57;;;2.60;;
29030;SDS011;16122;50.236;11.734;2023-05-24T14:01:40;7.80;;;3.00;;
29030;SDS011;16122;50.236;11.734;2023-05-24T14:04:06;6.43;;;3.00;;
29030;SDS011;16122;50.236;11.734;2023-05-24T14:06:32;10.53;;;2.80;;
29030;SDS011;16122;50.236;11.734;2023-05-24T14:09:02;4.90;;;2.80;;
29030;SDS011;16122;50.236;11.734;2023-05-24T14:11:30;8.70;;;3.53;;
29030;SDS011;16122;50.236;11.734;2023-05-24T14:13:56;11.83;;;2.87;;
29030;SDS011;16122;50.236;11.734;2023-05-24T14:16:22;7.93;;;4.57;;
29030;SDS011;16122;50.236;11.734;2023-05-24T14:18:48;8.77;;;3.40;;
29030;SDS011;16122;50.236;11.734;2023-05-24T14:21:17;8.73;;;2.57;;
29030;SDS011;16122;50.236;11.734;2023-05-24T14:23:43;6.00;;;3.20;;
29030;SDS011;16122;50.236;11.734;2023-05-24T14:26:09;9.20;;;3.20;;
29030;SDS011;16122;50.236;11.734;2023-05-24T14:28:35;6.47;;;3.00;;
29030;SDS011;16122;50.236;11.734;2023-05-24T14:31:01;6.50;;;2.23;;
29030;SDS011;16122;50.236;11.734;2023-05-24T14:33:26;7.77;;;3.07;;
29030;SDS011;16122;50.236;11.734;2023-05-24T14:35:52;6.07;;;3.10;;
29030;SDS011;16122;50.236;11.734;2023-05-24T14:38:18;5.93;;;2.80;;
29030;SDS011;16122;50.236;11.734;2023-05-24T14:40:44;11.47;;;3.10;;
29030;SDS011;16122;50.236;11.734;2023-05-24T14:43:12;5.70;;;2.53;;
29030;SDS011;16122;50.236;11.734;2023-05-24T14:45:38;10.43;;;2.80;;
29030;SDS011;16122;50.236;11.734;2023-05-24T14:48:05;7.13;;;2.97;;
29030;SDS011;16122;50.236;11.734;2023-05-24T14:50:35;6.73;;;2.70;;
29030;SDS011;16122;50.236;11.734;2023-05-24T14:53:02;5.73;;;3.00;;
29030;SDS011;16122;50.236;11.734;2023-05-24T14:55:35;7.57;;;2.27;;
29030;SDS011;16122;50.236;11.734;2023-05-24T14:58:02;8.07;;;2.80;;
29030;SDS011;16122;50.236;11.734;2023-05-24T15:00:28;4.40;;;2.37;;
29030;SDS011;16122;50.236;11.734;2023-05-24T15:02:54;6.07;;;3.00;;
29030;SDS011;16122;50.236;11.734;2023-05-24T15:05:20;12.73;;;3.10;;
29030;SDS011;16122;50.236;11.734;2023-05-24T15:07:46;7.30;;;2.80;;
29030;SDS011;16122;50.236;11.734;2023-05-24T15:10:12;6.40;;;3.00;;
29030;SDS011;16122;50.236;11.734;2023-05-24T15:12:37;8.83;;;2.80;;